Time;durP1;ratioP1;P1;durP2;ratioP2;P2;SDS_P1;SDS_P2;PMS_P1;PMS_P2;Temp;Humidity;BMP_temperature;BMP_pressure;BME280_temperature;BME280_humidity;BME280_pressure;Samples;Min_cycle;Max_cycle;Signal;HPM_P1;HPM_P2
2021/05/21 00:02:22;;;;;;;2.17;1.95;;;9.80;99.90;;;;;;5049079;28;20204;-74
2021/05/21 00:04:48;;;;;;;3.35;1.90;;;9.80;99.90;;;;;;5049391;28;20245;-74
2021/05/21 00:07:14;;;;;;;1.90;1.80;;;9.70;99.90;;;;;;5049568;28;20209;-77
2021/05/21 00:09:41;;;;;;;2.20;2.00;;;9.70;99.90;;;;;;5049964;28;20783;-76
2021/05/21 00:12:08;;;;;;;1.95;1.67;;;9.60;99.90;;;;;;5050788;28;20205;-76
2021/05/21 00:14:35;;;;;;;2.25;2.00;;;9.60;99.90;;;;;;5050797;28;20236;-76
2021/05/21 00:17:02;;;;;;;3.38;1.90;;;9.50;99.90;;;;;;5050868;28;20205;-75
2021/05/21 00:19:28;;;;;;;3.67;2.40;;;9.50;99.90;;;;;;5050953;28;20221;-75
2021/05/21 00:21:54;;;;;;;2.00;1.90;;;9.50;99.90;;;;;;5050138;28;20201;-76
2021/05/21 00:24:21;;;;;;;2.00;1.70;;;9.50;99.90;;;;;;5052190;28;20205;-76
2021/05/21 00:26:50;;;;;;;2.20;1.80;;;9.50;99.90;;;;;;5052894;28;20197;-76
2021/05/21 00:29:16;;;;;;;2.17;1.80;;;9.50;99.90;;;;;;5050682;28;20244;-76
2021/05/21 00:31:42;;;;;;;1.80;1.70;;;9.50;99.90;;;;;;5051148;28;20202;-76
2021/05/21 00:34:09;;;;;;;2.50;2.15;;;9.50;99.90;;;;;;5051794;28;20562;-75
2021/05/21 00:36:36;;;;;;;1.90;1.70;;;9.40;99.90;;;;;;5052262;28;20205;-76
2021/05/21 00:39:03;;;;;;;1.88;1.67;;;9.40;99.90;;;;;;5051907;28;20252;-76
2021/05/21 00:41:30;;;;;;;2.42;1.92;;;9.40;99.90;;;;;;5052683;28;20243;-76
2021/05/21 00:43:57;;;;;;;1.40;1.30;;;9.40;99.90;;;;;;5052116;28;20201;-75
2021/05/21 00:46:23;;;;;;;2.38;2.17;;;9.40;99.90;;;;;;5052408;28;20201;-76
2021/05/21 00:48:49;;;;;;;3.22;2.35;;;9.40;99.90;;;;;;5052102;28;20637;-75
2021/05/21 00:51:16;;;;;;;2.67;1.95;;;9.40;99.90;;;;;;5051948;28;20236;-75
2021/05/21 00:53:43;;;;;;;2.10;1.70;;;9.30;99.90;;;;;;5052295;28;20205;-76
2021/05/21 00:56:09;;;;;;;2.30;2.00;;;9.40;99.90;;;;;;5051932;28;20206;-75
2021/05/21 00:58:37;;;;;;;1.90;1.80;;;9.40;99.90;;;;;;5051714;28;20224;-76
2021/05/21 01:01:04;;;;;;;2.20;1.90;;;9.50;99.90;;;;;;5051767;28;20202;-75
2021/05/21 01:03:31;;;;;;;2.10;1.90;;;9.50;99.90;;;;;;5052008;28;20213;-76
2021/05/21 01:05:57;;;;;;;3.00;1.85;;;9.40;99.90;;;;;;5051558;28;20671;-75
2021/05/21 01:08:24;;;;;;;2.00;1.90;;;9.40;99.90;;;;;;5051724;28;20228;-75
2021/05/21 01:10:51;;;;;;;2.30;2.10;;;9.30;99.90;;;;;;5051665;28;20584;-76
2021/05/21 01:13:17;;;;;;;2.55;1.90;;;9.30;99.90;;;;;;5050828;28;20208;-75
2021/05/21 01:15:43;;;;;;;2.15;1.77;;;9.30;99.90;;;;;;5051656;28;20205;-75
2021/05/21 01:18:11;;;;;;;2.05;1.85;;;9.30;99.90;;;;;;5050953;28;20229;-75
2021/05/21 01:20:39;;;;;;;2.30;2.10;;;9.30;99.90;;;;;;5051692;28;20201;-75
2021/05/21 01:23:06;;;;;;;1.92;1.83;;;9.30;99.90;;;;;;5051631;28;20574;-76
2021/05/21 01:25:32;;;;;;;2.00;1.80;;;9.30;99.90;;;;;;5051527;28;20201;-75
2021/05/21 01:27:59;;;;;;;2.42;1.80;;;9.30;99.90;;;;;;5050864;28;20236;-76
2021/05/21 01:30:26;;;;;;;1.50;1.40;;;9.30;99.90;;;;;;5051583;28;20225;-76
2021/05/21 01:32:54;;;;;;;2.30;2.10;;;9.20;99.90;;;;;;5051462;28;20548;-76
2021/05/21 01:35:21;;;;;;;3.20;2.20;;;9.20;99.90;;;;;;5051277;28;20688;-76
2021/05/21 01:37:50;;;;;;;2.20;2.00;;;9.20;99.90;;;;;;5051015;28;20227;-75
2021/05/21 01:40:17;;;;;;;3.25;1.80;;;9.10;99.90;;;;;;5051111;28;20197;-76
2021/05/21 01:42:43;;;;;;;1.98;1.70;;;9.10;99.90;;;;;;5051314;28;20201;-76
2021/05/21 01:45:11;;;;;;;3.47;2.30;;;9.10;99.90;;;;;;5051018;28;20211;-75
2021/05/21 01:47:37;;;;;;;2.78;1.80;;;9.10;99.90;;;;;;5051068;28;20216;-76
2021/05/21 01:50:05;;;;;;;3.55;2.30;;;9.10;99.90;;;;;;5050565;28;20229;-75
2021/05/21 01:52:32;;;;;;;2.22;1.80;;;9.20;99.90;;;;;;5051295;28;20209;-75
2021/05/21 01:55:00;;;;;;;1.83;1.73;;;9.20;99.90;;;;;;5050921;28;20334;-75
2021/05/21 01:57:26;;;;;;;2.15;1.92;;;9.10;99.90;;;;;;5050800;28;20209;-76
2021/05/21 01:59:52;;;;;;;2.47;1.90;;;9.10;99.90;;;;;;5050893;28;20220;-75
2021/05/21 02:02:18;;;;;;;2.30;2.10;;;9.10;99.90;;;;;;5050815;28;20204;-75
2021/05/21 02:04:45;;;;;;;3.15;2.20;;;9.10;99.90;;;;;;5050952;28;20197;-76
2021/05/21 02:07:14;;;;;;;3.10;1.80;;;9.00;99.90;;;;;;5050658;28;20628;-76
2021/05/21 02:09:48;;;;;;;2.60;1.80;;;9.10;99.90;;;;;;5050514;28;20640;-76
2021/05/21 02:12:15;;;;;;;1.98;1.77;;;9.00;99.90;;;;;;5050803;28;20237;-76
2021/05/21 02:14:41;;;;;;;2.15;1.45;;;9.00;99.90;;;;;;5050904;28;20559;-75
2021/05/21 02:17:07;;;;;;;2.25;2.00;;;9.00;99.90;;;;;;5050505;28;20575;-76
2021/05/21 02:19:33;;;;;;;3.45;2.30;;;9.00;99.90;;;;;;5050319;28;20727;-76
2021/05/21 02:22:01;;;;;;;2.00;1.77;;;9.00;99.90;;;;;;5050786;28;20207;-75
2021/05/21 02:24:27;;;;;;;1.85;1.58;;;8.90;99.90;;;;;;5050486;28;20213;-76
2021/05/21 02:26:53;;;;;;;2.90;1.83;;;8.90;99.90;;;;;;5050601;28;20555;-75
2021/05/21 02:29:20;;;;;;;2.38;1.60;;;8.90;99.90;;;;;;5050055;28;20232;-75
2021/05/21 02:31:47;;;;;;;1.80;1.70;;;9.00;99.90;;;;;;5051054;28;20568;-75
2021/05/21 02:34:13;;;;;;;1.58;1.48;;;9.10;99.90;;;;;;5050341;28;20353;-76
2021/05/21 02:36:39;;;;;;;1.88;1.70;;;9.10;99.90;;;;;;5050800;28;20205;-76
2021/05/21 02:39:06;;;;;;;2.10;1.98;;;9.10;99.90;;;;;;5049949;28;20221;-76
2021/05/21 02:41:32;;;;;;;2.42;2.03;;;9.10;99.90;;;;;;5050699;28;20197;-76
2021/05/21 02:43:58;;;;;;;1.75;1.65;;;9.10;99.90;;;;;;5050447;28;20216;-75
2021/05/21 02:46:25;;;;;;;2.30;1.90;;;9.10;99.90;;;;;;5050620;28;20609;-76
2021/05/21 02:48:52;;;;;;;1.55;1.45;;;9.10;99.90;;;;;;5050920;28;20225;-75
2021/05/21 02:51:18;;;;;;;1.95;1.58;;;9.10;99.90;;;;;;5050625;28;20632;-75
2021/05/21 02:53:44;;;;;;;2.00;1.65;;;9.20;99.90;;;;;;5051029;28;20228;-76
2021/05/21 02:56:10;;;;;;;2.28;1.77;;;9.20;99.90;;;;;;5050384;28;20282;-76
2021/05/21 02:58:37;;;;;;;1.60;1.50;;;9.20;99.90;;;;;;5050093;28;20232;-75
2021/05/21 03:01:03;;;;;;;1.80;1.70;;;9.20;99.90;;;;;;5050061;28;20208;-75
2021/05/21 03:03:32;;;;;;;2.53;1.40;;;9.30;99.90;;;;;;5050233;28;20205;-75
2021/05/21 03:05:58;;;;;;;2.70;1.60;;;9.30;99.90;;;;;;5050189;28;20696;-75
2021/05/21 03:08:24;;;;;;;1.92;1.70;;;9.30;99.90;;;;;;5049716;28;20704;-75
2021/05/21 03:10:51;;;;;;;2.00;1.40;;;9.30;99.90;;;;;;5050161;28;20262;-75
2021/05/21 03:13:17;;;;;;;1.65;1.40;;;9.30;99.90;;;;;;5049919;28;20296;-75
2021/05/21 03:15:44;;;;;;;3.63;1.92;;;9.30;99.90;;;;;;5050329;28;20208;-76
2021/05/21 03:18:14;;;;;;;1.40;1.30;;;9.40;99.90;;;;;;5049498;28;20236;-75
2021/05/21 03:20:42;;;;;;;3.40;1.58;;;9.40;99.90;;;;;;5050154;28;20197;-75
2021/05/21 03:23:08;;;;;;;2.20;1.70;;;9.40;99.90;;;;;;5049781;28;20265;-75
2021/05/21 03:25:35;;;;;;;1.60;1.50;;;9.50;99.90;;;;;;5050114;28;20205;-77
2021/05/21 03:28:01;;;;;;;2.03;1.40;;;9.50;99.90;;;;;;5049677;28;20240;-75
2021/05/21 03:30:27;;;;;;;1.80;1.27;;;9.50;99.90;;;;;;5049997;28;20224;-75
2021/05/21 03:32:54;;;;;;;2.55;1.60;;;9.50;99.90;;;;;;5049931;28;20212;-75
2021/05/21 03:35:20;;;;;;;1.83;1.73;;;9.50;99.90;;;;;;5049783;28;20208;-75
2021/05/21 03:37:47;;;;;;;1.77;1.67;;;9.60;99.90;;;;;;5052394;28;20302;-75
2021/05/21 03:40:13;;;;;;;2.00;1.58;;;9.60;99.90;;;;;;5052977;28;20198;-75
2021/05/21 03:42:40;;;;;;;1.33;1.23;;;9.60;99.90;;;;;;5053448;28;20620;-75
2021/05/21 03:45:07;;;;;;;2.10;1.90;;;9.60;99.90;;;;;;5053022;28;20224;-75
2021/05/21 03:47:33;;;;;;;1.77;1.58;;;9.60;99.90;;;;;;5051545;28;20205;-75
2021/05/21 03:50:00;;;;;;;1.30;1.20;;;9.60;99.90;;;;;;5053054;28;20221;-75
2021/05/21 03:52:27;;;;;;;2.30;1.50;;;9.60;99.90;;;;;;5052470;28;20517;-72
2021/05/21 03:54:54;;;;;;;2.35;1.70;;;9.60;99.90;;;;;;5053041;28;20201;-72
2021/05/21 03:57:21;;;;;;;1.52;1.42;;;9.60;99.90;;;;;;5055800;28;20579;-72
2021/05/21 03:59:47;;;;;;;1.88;1.70;;;9.60;99.90;;;;;;5051471;28;20249;-73
2021/05/21 04:02:14;;;;;;;1.95;1.63;;;9.70;99.90;;;;;;5052755;28;20212;-73
2021/05/21 04:04:40;;;;;;;1.65;1.55;;;9.70;99.90;;;;;;5053364;28;20197;-72
2021/05/21 04:07:07;;;;;;;2.20;1.45;;;9.70;99.90;;;;;;5052663;28;20579;-72
2021/05/21 04:09:33;;;;;;;1.60;1.30;;;9.70;99.90;;;;;;5052326;28;20700;-72
2021/05/21 04:12:01;;;;;;;1.48;1.38;;;9.70;99.90;;;;;;5051985;28;20197;-73
2021/05/21 04:14:27;;;;;;;1.30;1.10;;;9.70;99.90;;;;;;5052532;28;20205;-73
2021/05/21 04:16:53;;;;;;;1.52;1.30;;;9.60;99.90;;;;;;5053034;28;20201;-72
2021/05/21 04:19:19;;;;;;;3.05;1.60;;;9.70;99.90;;;;;;5052141;28;20296;-72
2021/05/21 04:21:46;;;;;;;1.58;1.40;;;9.70;99.90;;;;;;5052668;28;20672;-72
2021/05/21 04:24:12;;;;;;;3.03;1.73;;;9.70;99.90;;;;;;5052329;28;20722;-72
2021/05/21 04:26:39;;;;;;;2.13;1.40;;;9.70;99.90;;;;;;5052534;28;20205;-73
2021/05/21 04:29:06;;;;;;;1.55;1.45;;;9.70;99.90;;;;;;5051828;28;20237;-73
2021/05/21 04:31:32;;;;;;;1.60;1.50;;;9.80;99.90;;;;;;5052210;28;20225;-72
2021/05/21 04:33:58;;;;;;;1.55;1.33;;;9.80;99.90;;;;;;5052307;28;20212;-72
2021/05/21 04:36:24;;;;;;;2.08;1.50;;;9.80;99.90;;;;;;5052322;28;20230;-73
2021/05/21 04:38:51;;;;;;;2.05;1.30;;;9.80;99.90;;;;;;5051844;28;20726;-72
2021/05/21 04:41:17;;;;;;;1.52;1.35;;;9.80;99.90;;;;;;5051962;28;20258;-72
2021/05/21 04:43:45;;;;;;;1.40;1.20;;;9.80;99.90;;;;;;5052256;28;20229;-72
2021/05/21 04:46:12;;;;;;;1.50;1.23;;;9.90;99.90;;;;;;5051928;28;20208;-72
2021/05/21 04:48:38;;;;;;;1.48;1.38;;;9.90;99.90;;;;;;5051607;28;20229;-73
2021/05/21 04:51:05;;;;;;;5.88;1.45;;;10.00;99.90;;;;;;5052102;28;20244;-72
2021/05/21 04:53:31;;;;;;;1.52;1.40;;;10.10;99.90;;;;;;5052071;28;20201;-72
2021/05/21 04:55:57;;;;;;;1.98;1.33;;;10.10;99.90;;;;;;5052125;28;20206;-72
2021/05/21 04:58:23;;;;;;;1.25;1.15;;;10.20;99.90;;;;;;5051750;28;20232;-73
2021/05/21 05:00:50;;;;;;;1.30;1.20;;;10.20;99.90;;;;;;5052000;28;20197;-72
2021/05/21 05:03:17;;;;;;;1.65;1.38;;;10.30;99.90;;;;;;5051748;28;20327;-72
2021/05/21 05:05:44;;;;;;;2.58;1.65;;;10.40;99.90;;;;;;5051734;28;20691;-71
2021/05/21 05:08:11;;;;;;;3.67;1.27;;;10.40;99.90;;;;;;5051366;28;20217;-73
2021/05/21 05:10:37;;;;;;;1.35;1.20;;;10.50;99.90;;;;;;5052087;28;20221;-71
2021/05/21 05:13:04;;;;;;;1.98;1.50;;;10.50;99.90;;;;;;5051938;28;20201;-72
2021/05/21 05:15:32;;;;;;;1.33;1.23;;;10.60;99.90;;;;;;5051321;28;20201;-73
2021/05/21 05:17:59;;;;;;;1.55;1.23;;;10.60;99.90;;;;;;5050257;28;20339;-72
2021/05/21 05:20:26;;;;;;;1.70;1.45;;;10.70;99.90;;;;;;5049790;28;20197;-71
2021/05/21 05:22:54;;;;;;;2.33;1.85;;;10.70;99.90;;;;;;5051075;28;20193;-73
2021/05/21 05:25:21;;;;;;;2.20;1.42;;;10.80;99.90;;;;;;5051216;28;20204;-71
2021/05/21 05:27:47;;;;;;;1.65;1.50;;;10.80;99.90;;;;;;5051105;28;20243;-75
2021/05/21 05:30:15;;;;;;;2.35;1.98;;;10.90;99.90;;;;;;5050917;28;20537;-72
2021/05/21 05:32:41;;;;;;;1.85;1.45;;;11.00;99.90;;;;;;5050091;28;20205;-73
2021/05/21 05:35:08;;;;;;;2.60;1.60;;;11.00;99.90;;;;;;5050234;28;20680;-73
2021/05/21 05:37:35;;;;;;;5.28;1.77;;;11.00;99.90;;;;;;5051098;28;20624;-72
2021/05/21 05:40:02;;;;;;;2.10;1.38;;;11.10;99.90;;;;;;5050814;28;20636;-73
2021/05/21 05:42:28;;;;;;;1.42;1.30;;;11.10;99.90;;;;;;5050955;28;20589;-71
2021/05/21 05:44:54;;;;;;;3.75;1.75;;;11.20;99.90;;;;;;5050984;28;20247;-73
2021/05/21 05:47:20;;;;;;;2.00;1.30;;;11.20;99.90;;;;;;5050829;28;20353;-72
2021/05/21 05:49:47;;;;;;;2.00;1.80;;;11.30;99.90;;;;;;5050372;28;20225;-72
2021/05/21 05:52:13;;;;;;;4.15;1.20;;;11.40;99.90;;;;;;5050401;28;20590;-71
2021/05/21 05:54:40;;;;;;;1.95;1.15;;;11.40;99.90;;;;;;5050563;28;20197;-71
2021/05/21 05:57:06;;;;;;;2.65;1.27;;;11.50;99.90;;;;;;5050689;28;20201;-72
2021/05/21 05:59:32;;;;;;;1.88;1.30;;;11.60;99.90;;;;;;5049784;28;20232;-71
2021/05/21 06:01:59;;;;;;;1.52;1.40;;;11.60;99.90;;;;;;5050130;28;20684;-71
2021/05/21 06:04:25;;;;;;;2.45;1.30;;;11.80;99.90;;;;;;5050529;28;20201;-71
2021/05/21 06:06:51;;;;;;;4.93;1.60;;;11.80;99.90;;;;;;5050522;28;20201;-72
2021/05/21 06:09:18;;;;;;;4.25;2.30;;;11.90;99.90;;;;;;5049849;28;20225;-71
2021/05/21 06:11:45;;;;;;;7.70;3.10;;;12.00;99.90;;;;;;5050361;28;20220;-72
2021/05/21 06:14:11;;;;;;;7.70;3.58;;;12.10;99.90;;;;;;5050149;28;20209;-71
2021/05/21 06:16:38;;;;;;;25.38;8.27;;;12.20;99.90;;;;;;5050425;28;20205;-71
2021/05/21 06:19:04;;;;;;;14.63;4.50;;;12.30;99.90;;;;;;5049770;28;20217;-71
2021/05/21 06:21:30;;;;;;;8.50;3.20;;;12.30;99.90;;;;;;5040881;28;20250;-71
2021/05/21 06:23:56;;;;;;;8.82;3.60;;;12.50;99.90;;;;;;5048522;28;20216;-71
2021/05/21 06:26:32;;;;;;;5.47;2.50;;;12.50;99.90;;;;;;5048510;28;20205;-71
2021/05/21 06:28:59;;;;;;;9.40;3.07;;;12.60;99.90;;;;;;5044058;28;20241;-71
2021/05/21 06:31:25;;;;;;;2.70;1.50;;;12.60;99.90;;;;;;5049536;28;20518;-71
2021/05/21 06:33:51;;;;;;;5.85;2.55;;;12.70;99.90;;;;;;5049478;28;20676;-71
2021/05/21 06:36:18;;;;;;;1.70;1.50;;;12.70;99.90;;;;;;5049380;28;20213;-71
2021/05/21 06:38:44;;;;;;;3.10;1.30;;;12.70;99.90;;;;;;5049376;28;20490;-71
2021/05/21 06:41:10;;;;;;;4.20;1.90;;;12.80;99.90;;;;;;5049843;28;20460;-72
2021/05/21 06:43:37;;;;;;;1.53;1.23;;;12.80;99.90;;;;;;5050015;28;20462;-72
2021/05/21 06:46:05;;;;;;;1.30;1.13;;;12.80;99.90;;;;;;5049364;28;20464;-71
2021/05/21 06:48:32;;;;;;;3.50;1.53;;;12.80;99.90;;;;;;5048056;28;20774;-72
2021/05/21 06:50:59;;;;;;;2.77;1.23;;;12.90;99.90;;;;;;5048566;28;20486;-72
2021/05/21 06:53:26;;;;;;;1.50;1.40;;;12.90;99.90;;;;;;5049880;28;20466;-72
2021/05/21 06:55:53;;;;;;;2.63;1.10;;;12.90;99.90;;;;;;5049105;28;20463;-72
2021/05/21 06:58:19;;;;;;;3.20;1.20;;;12.90;99.90;;;;;;5049104;28;20489;-71
2021/05/21 07:00:46;;;;;;;1.50;1.10;;;12.90;99.90;;;;;;5055775;28;20961;-71
2021/05/21 07:03:13;;;;;;;1.23;1.10;;;12.90;99.90;;;;;;5069454;28;20466;-72
2021/05/21 07:05:40;;;;;;;1.57;1.43;;;13.10;99.90;;;;;;5069720;28;21023;-72
2021/05/21 07:08:07;;;;;;;1.90;1.30;;;13.10;99.90;;;;;;5069062;28;20840;-71
2021/05/21 07:10:33;;;;;;;2.33;1.50;;;13.10;99.90;;;;;;5069620;28;20224;-72
2021/05/21 07:13:10;;;;;;;2.23;1.37;;;13.10;99.90;;;;;;5072286;28;20671;-72
2021/05/21 07:15:36;;;;;;;1.17;1.07;;;13.20;99.90;;;;;;5073720;28;20469;-72
2021/05/21 07:18:03;;;;;;;2.33;1.40;;;13.20;99.90;;;;;;5072696;28;20478;-71
2021/05/21 07:20:30;;;;;;;1.40;1.20;;;13.20;99.90;;;;;;5073176;28;20458;-72
2021/05/21 07:22:56;;;;;;;1.70;1.30;;;13.20;99.90;;;;;;5053824;28;20583;-71
2021/05/21 07:25:22;;;;;;;2.40;1.30;;;13.20;99.90;;;;;;5053331;28;20466;-71
2021/05/21 07:27:48;;;;;;;2.20;1.23;;;13.20;99.90;;;;;;5053009;28;20998;-71
2021/05/21 07:30:16;;;;;;;3.30;1.53;;;13.30;99.90;;;;;;5052840;28;21009;-72
2021/05/21 07:32:43;;;;;;;1.70;1.40;;;13.30;99.90;;;;;;5052071;28;20810;-71
2021/05/21 07:35:10;;;;;;;1.30;1.10;;;13.40;99.90;;;;;;5052848;28;20866;-72
2021/05/21 07:37:37;;;;;;;1.43;1.17;;;13.40;99.90;;;;;;5052734;28;20470;-71
2021/05/21 07:40:06;;;;;;;1.53;1.30;;;13.40;99.90;;;;;;5052888;28;20467;-72
2021/05/21 07:42:32;;;;;;;1.53;1.10;;;13.50;99.90;;;;;;5052905;28;20532;-71
2021/05/21 07:44:58;;;;;;;3.77;1.10;;;13.40;99.90;;;;;;5052914;28;20470;-73
2021/05/21 07:47:24;;;;;;;1.77;1.23;;;13.50;99.90;;;;;;5052724;28;20459;-72
2021/05/21 07:49:51;;;;;;;1.97;1.47;;;13.50;99.90;;;;;;5052531;28;20517;-72
2021/05/21 07:52:17;;;;;;;2.10;1.27;;;13.50;99.90;;;;;;5052475;28;21053;-72
2021/05/21 07:54:44;;;;;;;2.33;1.50;;;13.60;99.90;;;;;;5052797;28;20465;-73
2021/05/21 07:57:11;;;;;;;1.13;1.00;;;13.60;99.90;;;;;;5052682;28;20466;-72
2021/05/21 07:59:38;;;;;;;2.50;1.00;;;13.60;99.90;;;;;;5052157;28;20494;-72
2021/05/21 08:02:04;;;;;;;1.23;1.13;;;13.70;99.90;;;;;;5051914;28;20466;-72
2021/05/21 08:04:31;;;;;;;2.03;1.20;;;13.70;99.90;;;;;;5053117;28;20490;-72
2021/05/21 08:06:57;;;;;;;1.63;1.10;;;13.80;99.90;;;;;;5052627;28;20459;-72
2021/05/21 08:09:23;;;;;;;2.00;1.20;;;13.80;99.90;;;;;;5046953;28;20545;-73
2021/05/21 08:11:50;;;;;;;1.83;1.20;;;13.80;99.90;;;;;;5051079;28;20487;-72
2021/05/21 08:14:17;;;;;;;1.00;0.90;;;13.90;99.90;;;;;;5052288;28;20956;-73
2021/05/21 08:16:43;;;;;;;1.70;1.13;;;13.90;99.90;;;;;;5052486;28;20459;-73
2021/05/21 08:19:09;;;;;;;1.50;1.40;;;14.00;99.90;;;;;;5051845;28;20538;-73
2021/05/21 08:21:36;;;;;;;1.97;1.50;;;14.00;99.90;;;;;;5051843;28;20459;-71
2021/05/21 08:24:02;;;;;;;1.60;1.20;;;14.00;99.90;;;;;;5051966;28;20463;-71
2021/05/21 08:26:29;;;;;;;2.60;1.20;;;14.10;99.90;;;;;;5052460;28;20486;-72
2021/05/21 08:28:58;;;;;;;1.30;1.20;;;14.10;99.90;;;;;;5051981;28;20498;-73
2021/05/21 08:31:24;;;;;;;1.50;1.30;;;14.20;99.90;;;;;;5052126;28;20483;-71
2021/05/21 08:33:51;;;;;;;1.40;1.20;;;14.20;99.90;;;;;;5049789;28;20459;-71
2021/05/21 08:36:20;;;;;;;1.40;1.30;;;14.20;99.90;;;;;;5051509;28;20464;-71
2021/05/21 08:38:47;;;;;;;3.37;1.30;;;14.30;99.90;;;;;;5051606;28;20529;-72
2021/05/21 08:41:16;;;;;;;2.47;1.10;;;14.30;99.90;;;;;;5051813;28;20460;-71
2021/05/21 08:43:46;;;;;;;4.07;1.30;;;14.20;99.90;;;;;;5052053;28;21094;-71
2021/05/21 08:46:13;;;;;;;3.00;1.40;;;14.20;99.90;;;;;;5051749;28;20536;-72
2021/05/21 08:48:40;;;;;;;1.97;1.50;;;14.20;99.90;;;;;;5051810;28;20542;-73
2021/05/21 08:51:09;;;;;;;1.73;1.23;;;14.20;99.90;;;;;;5051228;28;21018;-72
2021/05/21 08:53:35;;;;;;;5.97;1.30;;;14.20;99.90;;;;;;5051953;28;21157;-73
2021/05/21 08:56:01;;;;;;;2.07;1.40;;;14.20;99.90;;;;;;5051629;28;20958;-72
2021/05/21 08:58:28;;;;;;;3.47;1.10;;;14.30;99.90;;;;;;5051460;28;20479;-72
2021/05/21 09:00:55;;;;;;;4.63;1.83;;;14.30;99.90;;;;;;5051488;28;20846;-72
2021/05/21 09:03:23;;;;;;;2.60;1.10;;;14.40;99.90;;;;;;5051512;28;20540;-72
2021/05/21 09:06:12;;;;;;;6.77;1.50;;;14.40;99.90;;;;;;5051937;28;20466;-72
2021/05/21 09:08:42;;;;;;;2.40;1.13;;;14.40;99.90;;;;;;5051067;28;21005;-72
2021/05/21 09:11:30;;;;;;;3.40;1.40;;;14.40;99.90;;;;;;5051275;28;20486;-72
2021/05/21 09:14:04;;;;;;;1.57;1.10;;;14.40;99.90;;;;;;5051130;28;20502;-72
2021/05/21 09:16:32;;;;;;;1.60;1.20;;;14.40;99.90;;;;;;5051585;28;20462;-73
2021/05/21 09:19:14;;;;;;;1.87;1.40;;;14.40;99.90;;;;;;5050923;28;20490;-72
2021/05/21 09:21:59;;;;;;;1.40;1.10;;;14.30;99.90;;;;;;5050934;28;20459;-73
2021/05/21 09:24:32;;;;;;;2.30;1.13;;;14.40;99.90;;;;;;5051119;28;20467;-72
2021/05/21 09:27:00;;;;;;;4.50;1.30;;;14.30;99.90;;;;;;5050905;28;20467;-71
2021/05/21 09:29:46;;;;;;;2.30;1.30;;;14.30;99.90;;;;;;5050506;28;20495;-72
2021/05/21 09:32:17;;;;;;;2.00;1.20;;;14.40;99.90;;;;;;5050517;28;20998;-71
2021/05/21 09:34:48;;;;;;;1.70;1.23;;;14.40;99.90;;;;;;5050360;28;20463;-72
2021/05/21 09:37:21;;;;;;;3.73;1.60;;;14.40;99.90;;;;;;5051048;28;21181;-72
2021/05/21 09:40:02;;;;;;;1.73;1.17;;;14.40;99.90;;;;;;5050534;28;21002;-71
2021/05/21 09:42:28;;;;;;;1.40;1.10;;;14.40;99.90;;;;;;5051136;28;20865;-70
2021/05/21 09:45:10;;;;;;;2.50;1.53;;;14.40;99.90;;;;;;5050705;28;20466;-71
2021/05/21 09:47:48;;;;;;;1.60;1.20;;;14.40;99.90;;;;;;5050845;28;20525;-71
2021/05/21 09:50:15;;;;;;;2.40;1.50;;;14.40;99.90;;;;;;5050009;28;20470;-72
2021/05/21 09:52:44;;;;;;;1.60;1.10;;;14.30;99.90;;;;;;5050732;28;20463;-70
2021/05/21 09:55:11;;;;;;;2.77;1.20;;;14.30;99.90;;;;;;5050030;28;20486;-71
2021/05/21 09:57:37;;;;;;;4.03;1.20;;;14.20;99.90;;;;;;5050245;28;20459;-72
2021/05/21 10:00:05;;;;;;;3.47;1.20;;;14.20;99.90;;;;;;5049905;28;20470;-71
2021/05/21 10:02:33;;;;;;;1.43;1.20;;;14.20;99.90;;;;;;5049510;28;20485;-72
2021/05/21 10:05:00;;;;;;;1.90;1.23;;;14.20;99.90;;;;;;5048731;28;20459;-72
2021/05/21 10:07:28;;;;;;;1.50;0.90;;;14.20;99.90;;;;;;5050710;28;20464;-72
2021/05/21 10:09:54;;;;;;;2.07;1.10;;;14.10;99.90;;;;;;5050352;28;20455;-71
2021/05/21 10:12:21;;;;;;;3.30;1.20;;;14.00;99.90;;;;;;5050124;28;20483;-71
2021/05/21 10:14:51;;;;;;;1.30;1.20;;;14.00;99.90;;;;;;5050564;28;20884;-71
2021/05/21 10:17:18;;;;;;;1.53;1.13;;;14.00;99.90;;;;;;5049994;28;20477;-70
2021/05/21 10:19:45;;;;;;;1.37;1.10;;;14.00;99.90;;;;;;5050270;28;20475;-70
2021/05/21 10:22:14;;;;;;;1.10;1.00;;;14.00;99.90;;;;;;5050036;28;20839;-72
2021/05/21 10:24:44;;;;;;;3.33;1.20;;;14.00;99.90;;;;;;5050568;28;20464;-71
2021/05/21 10:27:16;;;;;;;1.07;0.97;;;14.00;99.90;;;;;;5049987;28;20459;-71
2021/05/21 10:29:48;;;;;;;2.40;1.10;;;14.00;99.90;;;;;;5049771;28;20518;-71
2021/05/21 10:32:16;;;;;;;1.30;1.00;;;14.00;99.90;;;;;;5049739;28;20545;-70
2021/05/21 10:34:44;;;;;;;1.37;0.90;;;14.00;99.90;;;;;;5050283;28;20455;-71
2021/05/21 10:37:23;;;;;;;1.27;1.17;;;14.10;99.90;;;;;;5049992;28;20467;-70
2021/05/21 10:40:02;;;;;;;1.43;1.20;;;14.10;99.90;;;;;;5050124;28;20565;-72
2021/05/21 10:42:29;;;;;;;1.90;1.10;;;14.10;99.90;;;;;;5050258;28;20954;-71
2021/05/21 10:45:11;;;;;;;1.80;1.00;;;14.10;99.90;;;;;;5050128;28;20495;-72
2021/05/21 10:47:38;;;;;;;2.10;1.00;;;14.10;99.90;;;;;;5054235;28;20463;-72
2021/05/21 10:50:20;;;;;;;1.67;1.30;;;14.10;99.90;;;;;;5053808;28;20459;-71
2021/05/21 10:52:55;;;;;;;1.40;1.20;;;14.10;99.90;;;;;;5051746;28;20467;-71
2021/05/21 10:55:39;;;;;;;2.27;1.30;;;14.10;99.90;;;;;;5054065;28;20470;-71
2021/05/21 10:58:06;;;;;;;1.50;1.20;;;14.20;99.90;;;;;;5053380;28;20842;-71
2021/05/21 11:00:33;;;;;;;1.53;1.10;;;14.20;99.90;;;;;;5054254;28;20467;-71
2021/05/21 11:03:00;;;;;;;1.20;1.10;;;14.20;99.90;;;;;;5053544;28;20458;-71
2021/05/21 11:05:28;;;;;;;2.60;1.40;;;14.20;99.90;;;;;;5053867;28;20462;-71
2021/05/21 11:07:56;;;;;;;2.37;1.27;;;14.20;99.90;;;;;;5053708;28;20502;-71
2021/05/21 11:10:39;;;;;;;1.43;1.10;;;14.20;99.90;;;;;;5053791;28;20804;-71
2021/05/21 11:13:10;;;;;;;0.90;0.80;;;14.20;99.90;;;;;;5053406;28;20868;-72
2021/05/21 11:15:38;;;;;;;1.63;1.30;;;14.20;99.90;;;;;;5053462;28;20458;-71
2021/05/21 11:18:30;;;;;;;2.07;1.00;;;14.20;99.90;;;;;;5052964;28;20479;-72
2021/05/21 11:21:04;;;;;;;1.10;1.00;;;14.30;99.90;;;;;;5038814;28;20487;-72
2021/05/21 11:23:36;;;;;;;1.40;0.90;;;14.30;99.90;;;;;;5053566;28;20462;-73
2021/05/21 11:26:05;;;;;;;1.30;1.20;;;14.20;99.90;;;;;;5052097;28;20459;-71
2021/05/21 11:28:37;;;;;;;1.10;1.00;;;14.30;99.90;;;;;;5051722;28;20494;-71
2021/05/21 11:31:07;;;;;;;1.43;1.30;;;14.30;99.90;;;;;;5053367;28;20509;-72
2021/05/21 11:33:33;;;;;;;1.40;1.27;;;14.30;99.90;;;;;;5053647;28;20467;-71
2021/05/21 11:36:00;;;;;;;1.20;1.00;;;14.40;99.90;;;;;;5053481;28;20459;-71
2021/05/21 11:38:27;;;;;;;2.70;1.30;;;14.50;99.90;;;;;;5053030;28;20480;-71
2021/05/21 11:40:53;;;;;;;1.20;1.00;;;14.60;99.90;;;;;;5053607;28;20837;-72
2021/05/21 11:43:24;;;;;;;1.27;1.17;;;14.70;99.90;;;;;;5052823;28;20462;-72
2021/05/21 11:45:52;;;;;;;1.00;0.90;;;14.80;99.90;;;;;;5053243;28;20472;-71
2021/05/21 11:48:31;;;;;;;1.37;1.10;;;14.90;99.90;;;;;;5052553;28;20483;-72
2021/05/21 11:50:58;;;;;;;1.83;1.53;;;15.00;99.90;;;;;;5053207;28;20483;-71
2021/05/21 11:53:24;;;;;;;2.53;1.07;;;15.10;99.90;;;;;;5036672;28;20467;-71
2021/05/21 11:55:50;;;;;;;3.90;1.67;;;15.10;99.90;;;;;;5049939;28;20550;-71
2021/05/21 11:58:21;;;;;;;1.57;1.10;;;15.10;99.90;;;;;;5051720;28;20480;-72
2021/05/21 12:00:51;;;;;;;2.17;1.10;;;15.10;99.90;;;;;;5052599;28;20478;-71
2021/05/21 12:03:18;;;;;;;1.20;1.10;;;14.90;99.90;;;;;;5052664;28;20499;-72
2021/05/21 12:05:44;;;;;;;1.30;1.13;;;14.80;99.90;;;;;;5052161;28;20474;-72
2021/05/21 12:08:11;;;;;;;2.13;1.30;;;14.80;99.90;;;;;;5052387;28;20484;-71
2021/05/21 12:10:37;;;;;;;1.20;1.10;;;14.70;99.90;;;;;;5052545;28;20466;-71
2021/05/21 12:13:07;;;;;;;2.23;1.30;;;14.70;99.90;;;;;;5052550;28;20459;-72
2021/05/21 12:15:33;;;;;;;1.57;1.27;;;14.70;99.90;;;;;;5052783;28;20490;-71
2021/05/21 12:18:04;;;;;;;1.30;1.20;;;14.60;99.90;;;;;;5051764;28;20482;-72
2021/05/21 12:20:30;;;;;;;1.37;1.20;;;14.60;99.80;;;;;;5052638;28;20974;-72
2021/05/21 12:23:01;;;;;;;1.27;1.17;;;14.60;99.90;;;;;;5052333;28;20792;-71
2021/05/21 12:25:28;;;;;;;1.20;0.97;;;14.60;99.90;;;;;;5052558;28;21040;-72
2021/05/21 12:27:55;;;;;;;1.00;0.90;;;14.60;99.90;;;;;;5051629;28;20519;-72
2021/05/21 12:30:22;;;;;;;1.30;1.20;;;14.50;99.30;;;;;;5090686;22;20890;-70
2021/05/21 12:32:49;;;;;;;1.67;1.10;;;14.50;99.40;;;;;;5084953;28;20458;-69
2021/05/21 12:35:19;;;;;;;1.87;1.00;;;14.50;99.70;;;;;;5072465;28;20466;-68
2021/05/21 12:37:46;;;;;;;1.40;1.10;;;14.50;99.30;;;;;;5072287;28;20473;-68
2021/05/21 12:40:14;;;;;;;1.30;1.20;;;14.40;99.70;;;;;;5083490;28;20481;-68
2021/05/21 12:42:47;;;;;;;1.10;1.00;;;14.40;99.90;;;;;;5091915;28;20956;-69
2021/05/21 12:45:14;;;;;;;1.27;0.97;;;14.50;99.80;;;;;;5092105;28;20473;-68
2021/05/21 12:47:47;;;;;;;1.40;1.10;;;14.60;99.90;;;;;;5092003;28;20511;-68
2021/05/21 12:50:14;;;;;;;1.00;0.90;;;14.60;99.80;;;;;;5091483;28;20534;-68
2021/05/21 12:52:57;;;;;;;1.10;1.00;;;14.60;99.70;;;;;;5092015;28;20478;-67
2021/05/21 12:55:25;;;;;;;2.27;1.20;;;14.50;99.30;;;;;;5091817;28;20534;-69